Time;durP1;ratioP1;P1;durP2;ratioP2;P2;SDS_P1;SDS_P2;PMS_P1;PMS_P2;Temp;Humidity;BMP_temperature;BMP_pressure;BME280_temperature;BME280_humidity;BME280_pressure;Samples;Min_cycle;Max_cycle;Signal;HPM_P1;HPM_P2
2023/01/11 00:01:49;;;;;;;5.60;2.42;;;;;;;1.63;75.88;96631.56;5034680;28;20049;-82
2023/01/11 00:04:16;;;;;;;7.93;3.35;;;;;;;1.39;75.82;96637.22;5037566;28;20145;-83
2023/01/11 00:06:42;;;;;;;5.55;2.30;;;;;;;1.45;76.13;96625.47;5037283;28;20052;-83
2023/01/11 00:09:09;;;;;;;6.57;2.60;;;;;;;1.46;75.61;96631.66;5035065;28;20524;-84
2023/01/11 00:11:35;;;;;;;6.13;2.45;;;;;;;1.49;75.26;96629.28;5028607;28;20089;-84
2023/01/11 00:14:04;;;;;;;8.82;3.20;;;;;;;1.47;75.81;96630.63;5031352;28;20053;-86
2023/01/11 00:16:30;;;;;;;7.50;2.85;;;;;;;1.47;75.88;96630.63;5034215;28;20048;-89
2023/01/11 00:18:57;;;;;;;5.10;2.40;;;;;;;1.48;76.05;96633.03;5026345;28;20132;-87
2023/01/11 00:21:25;;;;;;;9.10;3.10;;;;;;;1.43;76.66;96626.81;5032202;28;20387;-84
2023/01/11 00:23:51;;;;;;;6.60;2.58;;;;;;;1.47;75.99;96623.38;5029016;28;20045;-83
2023/01/11 00:26:18;;;;;;;6.72;2.58;;;;;;;1.47;75.53;96618.00;5032474;28;20057;-87
2023/01/11 00:28:47;;;;;;;8.45;2.53;;;;;;;1.52;75.16;96611.88;5033525;28;20053;-88
2023/01/11 00:31:15;;;;;;;7.72;3.10;;;;;;;1.55;74.88;96608.66;5031732;28;20071;-86
2023/01/11 00:33:41;;;;;;;7.03;2.72;;;;;;;1.60;75.02;96600.66;5033572;28;20056;-89
2023/01/11 00:36:09;;;;;;;8.10;2.90;;;;;;;1.62;74.98;96603.09;5032444;28;20046;-82
2023/01/11 00:38:45;;;;;;;8.95;2.75;;;;;;;1.69;74.22;96593.78;5034301;28;20052;-85
2023/01/11 00:49:27;;;;;;;9.13;2.80;;;;;;;1.75;74.14;96587.38;5018484;28;20056;-84
2023/01/11 00:51:54;;;;;;;4.25;2.00;;;;;;;1.81;74.11;96580.97;5025224;28;20502;-85
2023/01/11 00:54:20;;;;;;;5.32;2.75;;;;;;;1.82;73.67;96577.22;5032768;28;20565;-89
2023/01/11 00:56:47;;;;;;;5.03;2.17;;;;;;;1.85;73.66;96575.13;5033118;28;20049;-89
2023/01/11 00:59:14;;;;;;;5.50;2.47;;;;;;;1.87;73.49;96575.66;5031763;28;20057;-87
2023/01/11 01:01:40;;;;;;;5.53;2.03;;;;;;;1.96;72.99;96571.44;5024682;28;20516;-84
2023/01/11 01:04:08;;;;;;;4.28;2.17;;;;;;;2.00;73.08;96572.53;5033660;28;20049;-82
2023/01/11 01:06:35;;;;;;;3.80;1.70;;;;;;;2.06;73.25;96571.50;5034771;28;20053;-83
2023/01/11 01:09:01;;;;;;;9.15;2.42;;;;;;;2.04;72.69;96573.66;5034270;28;20053;-83
2023/01/11 01:11:28;;;;;;;9.25;2.50;;;;;;;2.05;71.95;96576.06;5023150;28;20063;-82
2023/01/11 01:16:38;;;;;;;9.45;2.60;;;;;;;2.06;72.23;96576.88;5022452;28;20099;-83
2023/01/11 01:19:06;;;;;;;8.18;2.90;;;;;;;1.99;71.83;96573.63;5028673;28;20050;-85
2023/01/11 01:21:34;;;;;;;7.72;2.35;;;;;;;1.97;71.13;96581.09;5025968;28;20065;-83
2023/01/11 01:24:00;;;;;;;5.63;2.00;;;;;;;1.94;71.40;96584.31;5033826;28;20060;-82
2023/01/11 01:26:26;;;;;;;5.63;1.92;;;;;;;2.03;71.93;96577.38;5033615;28;20041;-86
2023/01/11 01:28:53;;;;;;;14.23;2.35;;;;;;;2.08;71.98;96580.09;5034243;28;20046;-86
2023/01/11 01:31:19;;;;;;;8.80;2.35;;;;;;;2.16;71.92;96578.81;5023287;28;20050;-83
2023/01/11 01:33:46;;;;;;;7.95;2.42;;;;;;;2.25;72.10;96574.59;5020501;28;20115;-87
2023/01/11 01:36:12;;;;;;;10.77;2.78;;;;;;;2.33;71.52;96574.09;5032975;28;20426;-85
2023/01/11 01:38:40;;;;;;;12.57;2.53;;;;;;;2.38;70.99;96578.69;5027688;28;20057;-84
2023/01/11 01:41:07;;;;;;;11.77;2.50;;;;;;;2.41;71.01;96567.44;5026595;28;20053;-87
2023/01/11 01:43:49;;;;;;;7.30;2.00;;;;;;;2.48;70.97;96579.56;5027148;28;20045;-87
2023/01/11 01:46:16;;;;;;;9.13;2.30;;;;;;;2.50;71.01;96568.53;5025624;28;20049;-87
2023/01/11 01:48:44;;;;;;;12.95;2.33;;;;;;;2.57;70.72;96566.44;5033641;28;20050;-87
2023/01/11 01:51:15;;;;;;;13.85;2.80;;;;;;;2.61;70.47;96570.22;5025014;28;20049;-85
2023/01/11 01:53:46;;;;;;;10.98;2.40;;;;;;;2.63;70.16;96570.75;5032323;28;20061;-83
2023/01/11 01:56:18;;;;;;;15.02;2.95;;;;;;;2.69;69.64;96569.72;5031405;28;20053;-88
2023/01/11 01:58:48;;;;;;;8.07;1.75;;;;;;;2.71;69.08;96564.06;5032426;28;20050;-88
2023/01/11 02:03:59;;;;;;;12.80;2.47;;;;;;;2.69;67.93;96564.34;5032510;28;20096;-87
2023/01/11 02:06:25;;;;;;;12.50;2.65;;;;;;;2.64;67.56;96558.13;5031919;28;20079;-85
2023/01/11 02:09:00;;;;;;;13.30;2.67;;;;;;;2.72;66.79;96558.44;5034147;28;20046;-84
2023/01/11 02:11:30;;;;;;;13.60;2.50;;;;;;;2.81;66.83;96559.53;5009601;28;20056;-84
2023/01/11 02:13:59;;;;;;;8.70;2.03;;;;;;;2.61;67.83;96554.91;5030626;28;20052;-87
2023/01/11 02:16:26;;;;;;;15.07;2.55;;;;;;;2.48;69.01;96550.00;5024944;28;20049;-84
2023/01/11 02:18:54;;;;;;;7.78;1.70;;;;;;;2.38;71.47;96554.50;5035001;28;20049;-85
2023/01/11 02:21:25;;;;;;;11.98;2.28;;;;;;;2.43;72.76;96549.16;5028807;28;20045;-82
2023/01/11 02:24:25;;;;;;;4.63;1.42;;;;;;;2.33;74.26;96545.34;5036402;28;20458;-83
2023/01/11 02:27:17;;;;;;;7.93;1.58;;;;;;;2.31;75.89;96542.13;5026039;28;20049;-85
2023/01/11 02:29:58;;;;;;;3.83;1.58;;;;;;;2.35;76.85;96537.84;5022699;28;20049;-84
2023/01/11 02:32:32;;;;;;;2.22;0.82;;;;;;;2.24;78.18;96536.13;5024944;28;20049;-83
2023/01/11 02:35:10;;;;;;;5.55;1.85;;;;;;;2.09;79.72;96538.75;5023672;28;20050;-81
2023/01/11 02:37:45;;;;;;;7.95;2.65;;;;;;;2.10;80.65;96537.69;5025205;28;20050;-84
2023/01/11 02:40:21;;;;;;;5.63;2.00;;;;;;;2.14;81.52;96538.81;5038274;28;20046;-81
2023/01/11 02:45:43;;;;;;;6.20;1.65;;;;;;;1.86;87.58;96523.81;5031976;28;20119;-81
2023/01/11 02:48:18;;;;;;;7.45;2.38;;;;;;;1.76;90.09;96527.25;5038342;28;20530;-87
2023/01/11 02:50:50;;;;;;;6.10;1.83;;;;;;;1.66;93.24;96519.13;5035208;28;20045;-82
2023/01/11 02:53:25;;;;;;;34.30;6.63;;;;;;;1.70;94.02;96524.78;5058426;22;21613;-80
2023/01/11 02:55:57;;;;;;;7.78;1.60;;;;;;;1.65;95.48;96517.50;5025102;28;20049;-79
2023/01/11 02:58:27;;;;;;;3.25;1.20;;;;;;;1.59;97.64;96512.34;5026013;28;20421;-81
2023/01/11 03:00:57;;;;;;;4.70;1.10;;;;;;;1.66;98.36;96508.38;5018739;28;20061;-82
2023/01/11 03:03:26;;;;;;;5.93;1.30;;;;;;;1.63;99.47;96503.53;5003798;28;20057;-82
2023/01/11 03:05:57;;;;;;;2.85;1.05;;;;;;;1.65;99.86;96508.63;5007220;28;20061;-81
2023/01/11 03:08:48;;;;;;;4.10;1.20;;;;;;;1.69;100.00;96501.69;4997093;28;20050;-82
2023/01/11 03:12:50;;;;;;;9.30;2.05;;;;;;;1.74;100.00;96491.00;5021905;28;20446;-79
2023/01/11 03:14:19;;;;;;;3.42;1.38;;;;;;;1.75;100.00;96482.69;5034364;28;20066;-79
2023/01/11 03:16:55;;;;;;;5.25;1.40;;;;;;;1.87;100.00;96476.31;5034427;28;20041;-80
2023/01/11 03:19:30;;;;;;;7.25;1.92;;;;;;;1.80;100.00;96463.09;5027244;28;20083;-80
2023/01/11 03:22:05;;;;;;;4.10;1.65;;;;;;;1.81;100.00;96467.41;5034450;28;20046;-79
2023/01/11 03:24:37;;;;;;;5.05;1.63;;;;;;;1.82;100.00;96453.72;5026906;28;20076;-80
2023/01/11 03:27:12;;;;;;;7.10;2.08;;;;;;;1.75;100.00;96461.19;5019351;28;20042;-78
2023/01/11 03:29:46;;;;;;;5.45;2.05;;;;;;;1.76;100.00;96460.13;5031001;28;20054;-80
2023/01/11 03:32:22;;;;;;;5.70;1.88;;;;;;;1.79;100.00;96448.88;5032840;28;20080;-79
2023/01/11 03:34:56;;;;;;;3.58;1.27;;;;;;;1.85;100.00;96447.03;5034417;28;20644;-79
2023/01/11 03:37:29;;;;;;;4.13;1.65;;;;;;;1.79;100.00;96443.50;5030653;28;20669;-79
2023/01/11 03:40:02;;;;;;;5.25;1.80;;;;;;;1.72;100.00;96434.88;5031670;28;20050;-79
2023/01/11 03:42:32;;;;;;;4.40;1.63;;;;;;;1.74;100.00;96440.78;5027578;28;20060;-79
2023/01/11 03:45:02;;;;;;;6.75;1.88;;;;;;;1.75;100.00;96437.03;5034891;28;20053;-81
2023/01/11 03:47:32;;;;;;;11.05;3.08;;;;;;;1.73;100.00;96441.88;5020059;28;20051;-79
2023/01/11 03:50:04;;;;;;;6.63;1.83;;;;;;;1.76;100.00;96443.22;5037040;28;20046;-79
2023/01/11 03:52:35;;;;;;;6.82;1.77;;;;;;;1.77;100.00;96434.88;5023091;28;20066;-79
2023/01/11 03:55:05;;;;;;;7.10;2.05;;;;;;;1.57;100.00;96434.78;5041471;28;20051;-80
2023/01/11 03:57:35;;;;;;;7.15;2.70;;;;;;;1.61;100.00;96435.88;5032917;28;20061;-79
2023/01/11 04:00:02;;;;;;;5.30;1.80;;;;;;;1.68;100.00;96427.59;5034405;28;20046;-79
2023/01/11 04:02:34;;;;;;;5.47;1.90;;;;;;;1.67;100.00;96429.50;5030522;28;20044;-79
2023/01/11 04:05:01;;;;;;;7.80;2.17;;;;;;;1.64;100.00;96421.94;5041985;28;20053;-79
2023/01/11 04:07:28;;;;;;;9.50;2.63;;;;;;;1.73;100.00;96422.28;5043948;28;20065;-80
2023/01/11 04:09:55;;;;;;;5.63;2.05;;;;;;;1.65;100.00;96422.75;5028681;28;20052;-80
2023/01/11 04:12:22;;;;;;;7.03;3.05;;;;;;;1.47;100.00;96424.00;5027891;28;20053;-82
2023/01/11 04:14:48;;;;;;;6.68;2.70;;;;;;;1.51;100.00;96417.84;5029032;28;20058;-81
2023/01/11 04:17:15;;;;;;;6.03;1.98;;;;;;;1.51;100.00;96420.53;5026707;28;20589;-80
2023/01/11 04:19:43;;;;;;;4.07;1.75;;;;;;;1.54;100.00;96421.88;5030431;28;20046;-80
2023/01/11 04:22:10;;;;;;;5.50;2.22;;;;;;;1.50;100.00;96418.09;5027674;28;20189;-80
2023/01/11 04:24:36;;;;;;;5.45;2.20;;;;;;;1.69;100.00;96421.16;5024984;28;20110;-81
2023/01/11 04:27:03;;;;;;;5.95;2.30;;;;;;;1.69;100.00;96410.44;5040526;28;20050;-79
2023/01/11 04:29:31;;;;;;;4.50;1.85;;;;;;;1.73;100.00;96417.72;5025255;28;20048;-79
2023/01/11 04:31:57;;;;;;;5.25;1.92;;;;;;;1.78;100.00;96420.41;5029554;28;20461;-79
2023/01/11 04:34:24;;;;;;;5.80;1.95;;;;;;;1.83;100.00;96417.75;5018485;28;20041;-80
2023/01/11 04:36:52;;;;;;;3.97;1.77;;;;;;;1.83;100.00;96414.28;5033727;28;20125;-80
2023/01/11 04:39:18;;;;;;;3.00;1.27;;;;;;;1.93;100.00;96414.31;5030871;28;20052;-79
2023/01/11 04:44:29;;;;;;;6.05;1.65;;;;;;;2.02;100.00;96409.25;5018398;28;20123;-79
2023/01/11 04:46:55;;;;;;;8.93;2.00;;;;;;;2.05;100.00;96414.09;5025776;28;20052;-79
2023/01/11 04:49:22;;;;;;;2.22;1.33;;;;;;;2.10;100.00;96400.69;5033802;28;20045;-80
2023/01/11 04:51:49;;;;;;;3.53;1.77;;;;;;;2.15;100.00;96397.22;5020491;28;20057;-79
2023/01/11 04:54:17;;;;;;;2.75;1.75;;;;;;;2.18;100.00;96397.47;5033424;28;20046;-79
2023/01/11 04:56:43;;;;;;;5.53;1.95;;;;;;;2.22;100.00;96393.22;5029021;28;20060;-79
2023/01/11 04:59:10;;;;;;;6.45;2.10;;;;;;;2.26;100.00;96394.31;5031392;28;20049;-80
2023/01/11 05:01:37;;;;;;;5.13;1.65;;;;;;;2.30;99.90;96390.03;5027418;28;20041;-79
2023/01/11 05:04:03;;;;;;;4.70;2.03;;;;;;;2.33;99.82;96389.47;5022178;28;20041;-81
2023/01/11 05:06:30;;;;;;;4.50;1.70;;;;;;;2.37;99.79;96394.34;5018352;28;20409;-79
2023/01/11 05:08:56;;;;;;;4.28;1.73;;;;;;;2.41;99.63;96395.44;5032762;28;20072;-79
2023/01/11 05:11:24;;;;;;;3.88;1.77;;;;;;;2.46;99.52;96398.94;5022765;28;20038;-80
2023/01/11 05:13:51;;;;;;;3.85;1.80;;;;;;;2.47;99.25;96389.00;5029784;28;20049;-79
2023/01/11 05:16:19;;;;;;;4.05;1.73;;;;;;;2.53;98.91;96394.09;5022232;28;20054;-79
2023/01/11 05:18:48;;;;;;;4.80;1.50;;;;;;;2.57;98.13;96400.56;5021969;28;20061;-80
2023/01/11 05:21:16;;;;;;;4.07;1.92;;;;;;;2.58;98.06;96394.13;5022889;28;20037;-80
2023/01/11 05:23:43;;;;;;;7.32;1.83;;;;;;;2.60;97.55;96393.84;5017891;28;20046;-79
2023/01/11 05:26:12;;;;;;;6.55;2.10;;;;;;;2.62;97.35;96391.72;5021843;28;20058;-79
2023/01/11 05:28:40;;;;;;;3.03;1.50;;;;;;;2.62;97.25;96391.72;5012836;28;20050;-80
2023/01/11 05:31:07;;;;;;;5.40;2.13;;;;;;;2.64;97.14;96392.25;5014236;28;20049;-79
2023/01/11 05:33:33;;;;;;;4.38;2.13;;;;;;;2.65;96.90;96401.09;5013327;28;20046;-81
2023/01/11 05:36:01;;;;;;;4.43;1.50;;;;;;;2.65;96.95;96396.53;5022567;28;20050;-81
2023/01/11 05:38:29;;;;;;;2.55;1.50;;;;;;;2.63;96.51;96393.31;5016755;28;20040;-79
2023/01/11 05:40:56;;;;;;;3.42;1.70;;;;;;;2.68;95.94;96390.63;5020220;28;20054;-79
2023/01/11 05:43:23;;;;;;;4.72;2.15;;;;;;;2.67;95.82;96388.22;5024312;28;20045;-79
2023/01/11 05:45:50;;;;;;;6.32;2.25;;;;;;;2.62;94.65;96386.34;5024966;28;20516;-81
2023/01/11 05:48:17;;;;;;;8.35;3.20;;;;;;;2.67;95.16;96380.16;5022252;28;20096;-81
2023/01/11 05:50:49;;;;;;;6.00;2.63;;;;;;;2.64;94.89;96378.00;5021269;28;20042;-81
2023/01/11 05:53:16;;;;;;;6.18;2.13;;;;;;;2.71;94.67;96384.72;5019804;28;20046;-81
2023/01/11 05:55:51;;;;;;;3.95;1.90;;;;;;;2.74;94.79;96373.44;5022587;28;20053;-80
2023/01/11 05:58:18;;;;;;;4.10;1.88;;;;;;;2.79;94.18;96372.63;5028025;28;20064;-81
2023/01/11 06:00:47;;;;;;;4.90;2.42;;;;;;;2.83;93.96;96371.84;5016636;28;20041;-80
2023/01/11 06:03:15;;;;;;;5.20;2.15;;;;;;;2.81;93.75;96373.16;5022099;28;20041;-81
2023/01/11 06:05:42;;;;;;;3.85;1.50;;;;;;;2.80;93.51;96372.34;5018696;28;20053;-81
2023/01/11 06:08:09;;;;;;;6.15;1.77;;;;;;;2.87;93.26;96378.31;5030062;28;20041;-81
2023/01/11 06:10:36;;;;;;;6.50;2.42;;;;;;;2.92;92.80;96379.34;5023233;28;20050;-81
2023/01/11 06:15:43;;;;;;;5.25;2.20;;;;;;;2.91;92.40;96372.38;5026672;28;20069;-79
2023/01/11 06:18:10;;;;;;;4.50;2.00;;;;;;;2.99;92.89;96379.91;5017208;28;20409;-80
2023/01/11 06:20:38;;;;;;;3.88;1.67;;;;;;;3.10;92.57;96368.06;5025821;28;20056;-80
2023/01/11 06:23:05;;;;;;;13.20;2.80;;;;;;;3.12;92.47;96365.91;5025375;28;20049;-81
2023/01/11 06:25:31;;;;;;;5.22;1.77;;;;;;;3.12;92.26;96384.75;5029661;28;20057;-81
2023/01/11 06:27:59;;;;;;;6.18;1.85;;;;;;;3.18;92.04;96382.84;5021632;28;20050;-81
2023/01/11 06:30:25;;;;;;;11.20;2.47;;;;;;;3.17;91.54;96376.66;5017057;28;20044;-80
2023/01/11 06:32:52;;;;;;;11.30;2.35;;;;;;;3.21;91.81;96372.38;5016122;28;20049;-80
2023/01/11 06:35:20;;;;;;;7.60;2.17;;;;;;;3.29;91.57;96376.38;5017457;28;20042;-79
2023/01/11 06:37:48;;;;;;;10.70;2.35;;;;;;;3.32;91.59;96373.97;5026137;28;20060;-79
2023/01/11 06:40:15;;;;;;;12.32;3.08;;;;;;;3.37;91.39;96376.66;5024568;28;20080;-79
2023/01/11 06:42:41;;;;;;;8.68;2.10;;;;;;;3.41;91.23;96379.63;5025898;28;20501;-78
2023/01/11 06:45:09;;;;;;;14.77;2.95;;;;;;;3.36;90.96;96385.81;5017569;28;20068;-81
2023/01/11 06:47:36;;;;;;;22.65;3.65;;;;;;;3.39;91.16;96382.59;5021469;28;20053;-79
2023/01/11 06:50:03;;;;;;;10.45;2.47;;;;;;;3.43;90.68;96380.13;5032130;28;20045;-80
2023/01/11 06:52:30;;;;;;;5.68;2.33;;;;;;;3.45;90.45;96377.19;5024955;28;20053;-81
2023/01/11 06:54:57;;;;;;;12.73;2.97;;;;;;;3.49;90.89;96378.25;5034605;28;20045;-79
2023/01/11 06:57:24;;;;;;;13.82;2.97;;;;;;;3.47;90.79;96375.03;5019250;28;20042;-79
2023/01/11 06:59:51;;;;;;;13.52;3.22;;;;;;;3.51;90.06;96368.03;5024603;28;20060;-80
2023/01/11 07:02:17;;;;;;;26.15;3.65;;;;;;;3.53;90.37;96363.16;5026956;28;20042;-79
2023/01/11 07:04:44;;;;;;;13.15;2.70;;;;;;;3.49;90.05;96367.47;5024128;28;20132;-78
2023/01/11 07:07:10;;;;;;;14.73;3.05;;;;;;;3.49;89.93;96362.09;5021009;28;20052;-78
2023/01/11 07:09:37;;;;;;;6.88;2.17;;;;;;;3.48;89.67;96361.28;5038153;28;20050;-83
2023/01/11 07:14:36;;;;;;;11.90;2.58;;;;;;;3.43;90.07;96368.56;5008645;28;20038;-82
2023/01/11 07:17:02;;;;;;;12.30;2.92;;;;;;;3.35;89.94;96378.81;5023015;28;20114;-79
2023/01/11 07:19:29;;;;;;;16.05;3.40;;;;;;;3.36;90.19;96375.03;5022812;28;20052;-80
2023/01/11 07:21:55;;;;;;;12.18;2.50;;;;;;;3.37;89.86;96375.84;5014567;28;20490;-80
2023/01/11 07:24:23;;;;;;;18.98;3.60;;;;;;;3.33;89.92;96375.56;4996533;28;20053;-81
2023/01/11 07:26:50;;;;;;;14.40;2.95;;;;;;;3.33;90.28;96374.78;5026906;28;20046;-80
2023/01/11 07:29:16;;;;;;;23.10;3.55;;;;;;;3.21;90.10;96383.13;5006266;28;20100;-79
2023/01/11 07:31:46;;;;;;;12.32;2.55;;;;;;;3.31;90.12;96369.66;5021226;28;20420;-80
2023/01/11 07:34:12;;;;;;;19.60;3.38;;;;;;;3.40;89.84;96375.31;5004077;28;20051;-81
2023/01/11 07:36:39;;;;;;;15.98;3.25;;;;;;;3.46;89.93;96368.84;5017978;28;20067;-81
2023/01/11 07:39:06;;;;;;;39.35;4.72;;;;;;;3.53;89.43;96363.16;5048163;22;20042;-80
2023/01/11 07:44:17;;;;;;;3.78;1.80;;;;;;;3.48;89.39;96361.28;5009966;28;20056;-80
2023/01/11 07:46:48;;;;;;;3.05;1.60;;;;;;;3.47;89.33;96358.88;5017898;28;20026;-80
2023/01/11 07:49:14;;;;;;;30.08;4.80;;;;;;;3.50;89.30;96352.94;4997871;28;20051;-81
2023/01/11 07:51:41;;;;;;;22.73;3.10;;;;;;;3.53;89.05;96363.97;4993290;28;20056;-80
2023/01/11 07:54:08;;;;;;;9.25;3.20;;;;;;;3.58;88.91;96358.56;5004881;28;20056;-80
2023/01/11 07:56:35;;;;;;;15.38;2.53;;;;;;;3.64;88.58;96362.06;5009554;28;20050;-80
2023/01/11 07:59:05;;;;;;;13.40;2.30;;;;;;;3.74;88.15;96359.34;5002488;28;20138;-80
2023/01/11 08:01:32;;;;;;;3.95;1.75;;;;;;;3.81;87.70;96348.28;5006097;28;20061;-81
2023/01/11 08:04:01;;;;;;;3.35;1.90;;;;;;;3.86;87.44;96345.56;5003390;28;20080;-80
2023/01/11 08:06:28;;;;;;;18.52;2.58;;;;;;;3.88;87.18;96333.44;4991172;28;20127;-80
2023/01/11 08:08:55;;;;;;;15.75;2.50;;;;;;;3.92;87.20;96328.31;4995344;28;20050;-81
2023/01/11 08:14:39;;;;;;;45.95;4.35;;;;;;;3.99;86.28;96338.78;4975547;28;20073;-81
2023/01/11 08:17:06;;;;;;;24.50;2.70;;;;;;;4.04;86.59;96333.38;4983505;28;20060;-80
2023/01/11 08:19:35;;;;;;;14.20;2.70;;;;;;;4.02;86.50;96327.44;5009122;28;20498;-81
2023/01/11 08:22:01;;;;;;;8.20;2.08;;;;;;;4.13;85.73;96324.44;5009188;28;20140;-81
2023/01/11 08:24:28;;;;;;;9.70;2.60;;;;;;;4.17;85.76;96319.28;5001778;28;20076;-81
2023/01/11 08:26:55;;;;;;;6.43;1.95;;;;;;;4.23;85.59;96318.19;5021326;28;20053;-81
2023/01/11 08:29:22;;;;;;;8.82;2.35;;;;;;;4.17;85.37;96319.28;5015432;28;20050;-81
2023/01/11 08:31:49;;;;;;;13.23;2.10;;;;;;;4.27;85.15;96321.94;5002277;28;20172;-81
2023/01/11 08:34:19;;;;;;;52.17;4.07;;;;;;;4.36;84.80;96317.56;4993770;28;20046;-80
2023/01/11 08:36:48;;;;;;;7.13;1.73;;;;;;;4.36;84.88;96312.19;5016603;28;20045;-82
2023/01/11 08:39:15;;;;;;;53.47;5.53;;;;;;;4.45;84.30;96315.91;5004847;28;20097;-81
2023/01/11 08:41:42;;;;;;;14.85;2.50;;;;;;;4.49;83.96;96307.22;4995597;28;20057;-81
2023/01/11 08:44:10;;;;;;;40.13;5.53;;;;;;;4.51;83.93;96310.47;4994187;28;20423;-80
2023/01/11 08:46:37;;;;;;;2.25;1.40;;;;;;;4.53;83.72;96316.38;5003217;28;20062;-80
2023/01/11 08:49:10;;;;;;;15.60;2.15;;;;;;;4.58;82.99;96302.88;4994218;28;20130;-80
2023/01/11 08:51:36;;;;;;;21.38;3.20;;;;;;;4.67;82.57;96306.56;4999212;28;20042;-81
2023/01/11 08:54:06;;;;;;;53.65;4.10;;;;;;;4.65;82.58;96308.75;5011157;23;20101;-83
2023/01/11 08:56:33;;;;;;;63.45;4.05;;;;;;;4.67;82.73;96306.56;4991923;28;20070;-80
2023/01/11 08:59:00;;;;;;;28.27;3.17;;;;;;;4.69;83.00;96310.59;4991556;28;20050;-80
2023/01/11 09:01:27;;;;;;;18.35;3.13;;;;;;;4.77;83.00;96295.72;4992445;28;20050;-78
2023/01/11 09:03:55;;;;;;;22.92;3.35;;;;;;;4.88;82.64;96302.63;4997107;28;20048;-77
2023/01/11 09:06:22;;;;;;;23.25;3.25;;;;;;;5.00;81.88;96290.66;4999360;28;20058;-85
2023/01/11 09:08:48;;;;;;;18.85;2.92;;;;;;;5.03;81.87;96293.59;4994421;28;20070;-81
2023/01/11 09:14:00;;;;;;;26.33;3.95;;;;;;;5.18;80.74;96298.06;4993112;28;20104;-83
2023/01/11 09:16:27;;;;;;;19.30;2.97;;;;;;;5.14;80.38;96307.81;5014171;28;20044;-78
2023/01/11 09:18:54;;;;;;;32.60;4.55;;;;;;;5.16;80.33;96313.72;4992617;28;20518;-80
2023/01/11 09:21:21;;;;;;;21.42;3.13;;;;;;;5.36;79.80;96312.72;5010826;28;20418;-79
2023/01/11 09:23:47;;;;;;;19.52;3.00;;;;;;;5.44;79.25;96304.81;5022188;28;20060;-80
2023/01/11 09:26:14;;;;;;;23.73;3.35;;;;;;;5.49;78.52;96295.84;5012936;28;20061;-80
2023/01/11 09:28:42;;;;;;;17.85;2.75;;;;;;;5.61;78.39;96298.16;5023982;28;20060;-78
2023/01/11 09:31:09;;;;;;;22.30;3.47;;;;;;;5.64;78.48;96308.41;5022752;28;20052;-76
2023/01/11 09:33:37;;;;;;;23.60;3.28;;;;;;;5.60;78.97;96312.75;5022509;28;20061;-76
2023/01/11 09:36:04;;;;;;;24.60;3.58;;;;;;;5.77;78.58;96307.69;5023018;28;20045;-77
2023/01/11 09:38:32;;;;;;;20.02;3.25;;;;;;;5.91;77.38;96310.50;5017033;28;20040;-79
2023/01/11 09:41:08;;;;;;;22.13;3.45;;;;;;;5.93;77.25;96306.44;5013367;28;20062;-76
2023/01/11 09:43:42;;;;;;;18.35;3.13;;;;;;;5.97;77.59;96302.06;5013392;28;20104;-78
2023/01/11 09:46:13;;;;;;;22.52;3.90;;;;;;;5.89;77.77;96305.38;5016368;28;20065;-84
2023/01/11 09:48:45;;;;;;;14.00;2.90;;;;;;;6.11;77.10;96301.34;5022369;28;20054;-81
2023/01/11 09:51:14;;;;;;;25.00;3.70;;;;;;;6.29;76.96;96303.28;5018157;28;20057;-78
2023/01/11 09:53:45;;;;;;;12.10;2.47;;;;;;;6.40;76.77;96303.94;5015355;28;20468;-82
2023/01/11 09:56:15;;;;;;;22.08;3.85;;;;;;;6.50;75.60;96303.78;5015163;28;20137;-79
2023/01/11 09:58:53;;;;;;;22.92;3.58;;;;;;;6.60;74.74;96298.22;5015198;28;20395;-82
2023/01/11 10:01:28;;;;;;;18.23;2.95;;;;;;;6.63;75.03;96302.25;5014817;28;20065;-78
2023/01/11 10:04:24;;;;;;;17.23;3.08;;;;;;;6.66;74.80;96298.97;5015635;28;20592;-79
2023/01/11 10:07:05;;;;;;;17.60;2.95;;;;;;;6.83;73.92;96296.50;4999972;28;20069;-78
2023/01/11 10:09:37;;;;;;;19.83;3.33;;;;;;;6.92;74.32;96291.25;5008643;28;20046;-77
2023/01/11 10:12:16;;;;;;;21.93;3.47;;;;;;;7.04;73.74;96292.38;5015494;28;20061;-79
2023/01/11 10:14:56;;;;;;;16.27;2.80;;;;;;;7.16;74.02;96283.78;5016318;28;20288;-78
2023/01/11 10:17:39;;;;;;;17.77;2.83;;;;;;;7.27;73.17;96284.41;5016652;28;20042;-77
2023/01/11 10:20:23;;;;;;;22.70;3.28;;;;;;;7.30;72.66;96273.78;5017858;28;20072;-77
2023/01/11 10:22:52;;;;;;;19.35;3.22;;;;;;;7.36;72.88;96274.50;5016310;28;20054;-79
2023/01/11 10:25:25;;;;;;;17.23;2.60;;;;;;;7.44;72.86;96268.38;5015717;28;20747;-80
2023/01/11 10:27:57;;;;;;;20.15;2.92;;;;;;;7.43;72.87;96274.91;5015711;28;20140;-77
2023/01/11 10:30:44;;;;;;;14.27;2.50;;;;;;;7.43;72.52;96277.63;5009870;28;20659;-79
2023/01/11 10:33:28;;;;;;;27.48;3.88;;;;;;;7.19;72.98;96266.13;5017265;28;20066;-77
2023/01/11 10:36:17;;;;;;;25.42;3.85;;;;;;;7.26;73.42;96261.94;5016943;28;20046;-79
2023/01/11 10:39:02;;;;;;;24.38;3.47;;;;;;;7.42;73.24;96265.19;5017467;28;20048;-78
2023/01/11 10:41:37;;;;;;;25.50;4.38;;;;;;;7.59;72.96;96257.25;5023255;28;20097;-76
2023/01/11 10:44:17;;;;;;;25.98;3.80;;;;;;;7.75;72.09;96256.94;5023527;28;20081;-81
2023/01/11 10:46:49;;;;;;;15.45;2.63;;;;;;;7.86;71.59;96252.94;5021454;28;20056;-80
2023/01/11 10:49:30;;;;;;;24.92;3.40;;;;;;;8.02;71.64;96256.91;5020177;28;20060;-80
2023/01/11 10:52:04;;;;;;;15.02;2.42;;;;;;;8.05;71.52;96256.31;5015290;28;20403;-77
2023/01/11 10:54:34;;;;;;;20.48;2.88;;;;;;;8.16;71.34;96256.09;5006021;28;20525;-81
2023/01/11 10:57:12;;;;;;;17.30;2.80;;;;;;;8.06;70.11;96244.38;5013943;28;20045;-79
2023/01/11 10:59:54;;;;;;;18.00;2.55;;;;;;;8.14;69.88;96244.75;5017276;28;20052;-78
2023/01/11 11:02:36;;;;;;;17.58;2.40;;;;;;;8.08;69.31;96242.13;5020462;28;20077;-82
2023/01/11 11:05:23;;;;;;;23.15;3.35;;;;;;;8.13;69.30;96232.28;5016090;28;20054;-84
2023/01/11 11:07:56;;;;;;;16.25;2.55;;;;;;;8.21;68.89;96245.16;5025158;28;20053;-83
2023/01/11 11:10:31;;;;;;;13.10;2.22;;;;;;;8.06;69.49;96235.44;5020583;28;20058;-79
2023/01/11 11:13:09;;;;;;;12.25;2.13;;;;;;;8.23;69.47;96226.66;5022232;28;20134;-85
2023/01/11 11:15:40;;;;;;;14.57;2.38;;;;;;;8.14;69.14;96217.63;5019199;28;20050;-79
2023/01/11 11:18:07;;;;;;;14.45;2.38;;;;;;;8.21;69.99;96215.31;5021287;28;20049;-86
2023/01/11 11:20:35;;;;;;;19.15;2.65;;;;;;;8.04;70.03;96213.25;5020018;28;20046;-82
2023/01/11 11:23:02;;;;;;;18.77;2.88;;;;;;;8.21;70.44;96209.88;5020605;28;20053;-84
2023/01/11 11:25:31;;;;;;;15.82;2.33;;;;;;;8.15;69.86;96211.09;5023074;28;20049;-83
2023/01/11 11:28:01;;;;;;;22.90;3.30;;;;;;;8.45;69.45;96199.56;5019623;28;20076;-82
2023/01/11 11:30:31;;;;;;;11.07;2.05;;;;;;;8.67;68.01;96203.41;5012590;28;20049;-86
2023/01/11 11:33:01;;;;;;;12.25;2.30;;;;;;;8.81;67.92;96201.41;5015938;28;20426;-87
2023/01/11 11:35:38;;;;;;;14.40;2.38;;;;;;;8.91;67.60;96189.50;5008571;28;20042;-85
2023/01/11 11:38:05;;;;;;;8.88;1.83;;;;;;;9.03;67.19;96190.53;5015722;28;20061;-82
2023/01/11 11:40:34;;;;;;;19.85;3.10;;;;;;;9.29;66.43;96192.53;5015048;28;20514;-81
2023/01/11 11:43:21;;;;;;;14.63;2.35;;;;;;;9.52;64.61;96194.09;5014521;28;20053;-80
2023/01/11 11:45:52;;;;;;;19.23;2.85;;;;;;;9.75;64.43;96189.34;5014551;28;20521;-87
2023/01/11 11:48:19;;;;;;;20.38;2.97;;;;;;;9.80;63.80;96182.97;5013433;28;20062;-81
2023/01/11 11:50:48;;;;;;;20.85;2.58;;;;;;;9.65;64.10;96174.13;5013762;28;20045;-81
2023/01/11 11:53:27;;;;;;;25.27;3.30;;;;;;;9.81;64.14;96168.25;5013234;28;20052;-81
2023/01/11 11:55:54;;;;;;;22.20;3.10;;;;;;;9.91;64.82;96163.28;5013081;28;20057;-81
2023/01/11 11:58:24;;;;;;;21.67;3.33;;;;;;;9.74;64.54;96170.63;5013203;28;20046;-82
2023/01/11 12:00:52;;;;;;;23.67;3.05;;;;;;;9.78;65.05;96168.88;5012973;28;20143;-77
2023/01/11 12:03:23;;;;;;;22.27;3.58;;;;;;;9.85;65.93;96163.78;5012121;28;20050;-82
2023/01/11 12:05:54;;;;;;;25.67;3.58;;;;;;;9.75;65.72;96164.06;5012377;28;20060;-82
2023/01/11 12:08:23;;;;;;;14.75;2.60;;;;;;;9.62;65.94;96161.19;5011925;28;20540;-81
2023/01/11 12:10:53;;;;;;;29.27;3.58;;;;;;;9.58;66.59;96154.75;5014641;28;20049;-83
2023/01/11 12:13:29;;;;;;;29.88;3.40;;;;;;;9.59;66.70;96153.63;5012177;28;20078;-80
2023/01/11 12:15:58;;;;;;;16.58;2.33;;;;;;;9.55;66.83;96149.97;5021377;28;20052;-83
2023/01/11 12:18:29;;;;;;;25.38;3.22;;;;;;;9.53;66.79;96146.75;5012645;28;20775;-85
2023/01/11 12:20:57;;;;;;;22.38;3.00;;;;;;;9.38;66.89;96150.69;4998260;28;20487;-82
2023/01/11 12:23:25;;;;;;;31.20;3.75;;;;;;;9.40;67.35;96153.13;4995512;28;20073;-82